Time;durP1;ratioP1;P1;durP2;ratioP2;P2;SDS_P1;SDS_P2;PMS_P1;PMS_P2;Temp;Humidity;BMP_temperature;BMP_pressure;BME280_temperature;BME280_humidity;BME280_pressure;Samples;Min_cycle;Max_cycle;Signal;HPM_P1;HPM_P2
2022/07/26 00:01:13;;;;;;;1.75;1.20;;;11.90;99.90;;;;;;5054160;28;20470;-68
2022/07/26 00:03:49;;;;;;;3.83;1.40;;;12.00;99.90;;;;;;5053804;28;20059;-68
2022/07/26 00:06:17;;;;;;;3.53;1.40;;;12.00;99.90;;;;;;5053920;28;20470;-68
2022/07/26 00:08:45;;;;;;;2.33;1.48;;;12.10;99.90;;;;;;5054049;28;20030;-68
2022/07/26 00:11:14;;;;;;;1.50;1.15;;;12.10;99.90;;;;;;5053665;28;20037;-69
2022/07/26 00:13:41;;;;;;;2.88;0.95;;;12.10;99.90;;;;;;5053755;28;20087;-68
2022/07/26 00:16:09;;;;;;;2.83;1.10;;;12.20;99.90;;;;;;5053960;28;20039;-68
2022/07/26 00:18:37;;;;;;;3.00;1.15;;;12.20;99.90;;;;;;5053706;28;20207;-68
2022/07/26 00:21:05;;;;;;;1.00;0.90;;;12.30;99.90;;;;;;5053745;28;20025;-68
2022/07/26 00:23:33;;;;;;;6.63;1.15;;;12.30;99.90;;;;;;5053763;28;20021;-68
2022/07/26 00:26:01;;;;;;;1.23;1.00;;;12.30;99.90;;;;;;5053714;28;20029;-68
2022/07/26 00:28:29;;;;;;;1.50;0.98;;;12.40;99.90;;;;;;5053593;28;20066;-68
2022/07/26 00:30:56;;;;;;;6.32;1.58;;;12.50;99.90;;;;;;5053431;28;20029;-68
2022/07/26 00:33:24;;;;;;;4.72;1.05;;;12.70;99.90;;;;;;5053507;28;20062;-68
2022/07/26 00:35:52;;;;;;;1.92;1.13;;;12.70;99.90;;;;;;5053612;28;20033;-68
2022/07/26 00:38:19;;;;;;;0.82;0.80;;;12.80;99.90;;;;;;5053705;28;20070;-68
2022/07/26 00:40:47;;;;;;;3.28;1.33;;;12.80;99.90;;;;;;5053512;28;20021;-68
2022/07/26 00:43:15;;;;;;;1.55;0.80;;;12.80;99.90;;;;;;5053395;28;20040;-68
2022/07/26 00:45:42;;;;;;;1.20;0.75;;;12.80;99.90;;;;;;5053488;28;20053;-68
2022/07/26 00:48:10;;;;;;;1.20;1.00;;;12.80;99.90;;;;;;5053423;28;20565;-68
2022/07/26 00:50:38;;;;;;;2.13;1.10;;;12.90;99.90;;;;;;5053327;28;20043;-69
2022/07/26 00:53:06;;;;;;;1.88;0.95;;;12.90;99.90;;;;;;5053397;28;20029;-69
2022/07/26 00:55:34;;;;;;;1.17;1.00;;;13.00;99.90;;;;;;5053242;28;20028;-68
2022/07/26 00:58:01;;;;;;;1.27;1.00;;;13.00;99.90;;;;;;5052204;28;20021;-69
2022/07/26 01:00:29;;;;;;;6.22;1.13;;;13.10;99.90;;;;;;5053391;28;20056;-68
2022/07/26 01:02:59;;;;;;;1.40;0.82;;;13.10;99.90;;;;;;5053067;28;20127;-69
2022/07/26 01:05:27;;;;;;;1.00;0.90;;;13.10;99.90;;;;;;5052969;28;20086;-68
2022/07/26 01:07:58;;;;;;;1.85;0.95;;;13.10;99.90;;;;;;5053211;28;20082;-69
2022/07/26 01:10:26;;;;;;;2.30;1.10;;;13.10;99.90;;;;;;5057398;28;20063;-69
2022/07/26 01:12:54;;;;;;;2.47;1.17;;;13.10;99.90;;;;;;5057715;28;20052;-70
2022/07/26 01:15:22;;;;;;;2.72;1.40;;;13.10;99.90;;;;;;5057220;28;20074;-70
2022/07/26 01:17:49;;;;;;;1.33;1.10;;;13.10;99.90;;;;;;5057114;28;20029;-70
2022/07/26 01:20:17;;;;;;;1.80;1.60;;;13.10;99.90;;;;;;5057099;28;20021;-69
2022/07/26 01:22:45;;;;;;;2.97;1.77;;;13.20;99.90;;;;;;5057231;28;20470;-71
2022/07/26 01:25:15;;;;;;;2.25;1.10;;;13.20;99.90;;;;;;5056871;28;20032;-70
2022/07/26 01:27:43;;;;;;;1.52;1.05;;;13.30;99.90;;;;;;5057238;28;20037;-69
2022/07/26 01:30:12;;;;;;;1.63;1.00;;;13.20;99.90;;;;;;5056866;28;20060;-70
2022/07/26 01:32:40;;;;;;;5.45;1.38;;;13.20;99.90;;;;;;5057553;28;20098;-73
2022/07/26 01:35:08;;;;;;;1.63;0.95;;;13.40;99.90;;;;;;5056555;28;20378;-71
2022/07/26 01:37:36;;;;;;;1.85;1.08;;;13.40;99.90;;;;;;5057020;28;20139;-71
2022/07/26 01:40:05;;;;;;;2.45;1.10;;;13.50;99.90;;;;;;5056694;28;20381;-71
2022/07/26 01:42:33;;;;;;;1.95;1.10;;;13.50;99.90;;;;;;5056923;28;20140;-71
2022/07/26 01:45:00;;;;;;;4.30;1.17;;;13.40;99.90;;;;;;5056867;28;20103;-70
2022/07/26 01:47:28;;;;;;;3.05;1.23;;;13.40;99.90;;;;;;5056810;28;20025;-69
2022/07/26 01:49:56;;;;;;;0.95;0.75;;;13.50;99.90;;;;;;5056467;28;20377;-70
2022/07/26 01:52:27;;;;;;;1.90;0.93;;;13.50;99.90;;;;;;5056375;28;20041;-70
2022/07/26 01:54:54;;;;;;;1.13;0.90;;;13.50;99.90;;;;;;5056495;28;20347;-70
2022/07/26 01:57:22;;;;;;;1.33;0.90;;;13.60;99.90;;;;;;5056584;28;20029;-70
2022/07/26 01:59:50;;;;;;;1.48;0.90;;;13.60;99.90;;;;;;5056298;28;20027;-70
2022/07/26 02:02:17;;;;;;;2.22;1.05;;;13.60;99.90;;;;;;5056269;28;20512;-71
2022/07/26 02:04:57;;;;;;;1.20;1.10;;;13.70;99.90;;;;;;5054984;28;20180;-70
2022/07/26 02:07:30;;;;;;;1.10;1.00;;;13.80;99.90;;;;;;5055205;28;20048;-70
2022/07/26 02:09:59;;;;;;;1.73;1.50;;;13.70;99.90;;;;;;5054896;28;20470;-70
2022/07/26 02:12:27;;;;;;;1.55;1.27;;;13.80;99.90;;;;;;5054966;28;20044;-71
2022/07/26 02:14:54;;;;;;;1.25;1.08;;;14.00;99.90;;;;;;5054664;28;20420;-69
2022/07/26 02:17:22;;;;;;;2.13;1.45;;;14.10;99.90;;;;;;5054924;28;20021;-70
2022/07/26 02:19:51;;;;;;;2.65;1.20;;;14.20;99.90;;;;;;5054479;28;20476;-71
2022/07/26 02:22:19;;;;;;;1.85;1.30;;;14.30;99.90;;;;;;5054900;28;20029;-70
2022/07/26 02:24:50;;;;;;;1.63;1.27;;;14.30;99.90;;;;;;5053642;28;20458;-71
2022/07/26 02:27:18;;;;;;;1.73;1.30;;;14.30;99.90;;;;;;5054848;28;20072;-69
2022/07/26 02:29:46;;;;;;;2.15;1.30;;;14.20;99.90;;;;;;5054540;28;20528;-71
2022/07/26 02:32:17;;;;;;;1.30;1.00;;;14.10;99.90;;;;;;5054564;28;20041;-70
2022/07/26 02:34:45;;;;;;;1.75;1.20;;;14.10;99.90;;;;;;5054651;28;20017;-70
2022/07/26 02:37:12;;;;;;;2.85;1.20;;;14.00;99.90;;;;;;5054744;28;20061;-71
2022/07/26 02:39:40;;;;;;;1.23;0.85;;;14.00;99.90;;;;;;5054551;28;20510;-71
2022/07/26 02:42:08;;;;;;;1.70;0.80;;;14.00;99.90;;;;;;5054595;28;20421;-71
2022/07/26 02:44:36;;;;;;;1.55;0.75;;;14.10;99.90;;;;;;5054491;28;20028;-70
2022/07/26 02:47:03;;;;;;;0.52;0.50;;;14.20;99.90;;;;;;5053696;28;20044;-70
2022/07/26 02:49:31;;;;;;;1.05;0.63;;;14.20;99.90;;;;;;5054246;28;20444;-70
2022/07/26 02:51:59;;;;;;;1.20;0.90;;;14.30;99.90;;;;;;5054242;28;20037;-70
2022/07/26 02:54:29;;;;;;;0.68;0.65;;;14.30;99.90;;;;;;5054207;28;20017;-70
2022/07/26 02:56:57;;;;;;;1.95;0.88;;;14.40;99.90;;;;;;5054490;28;20021;-71
2022/07/26 02:59:25;;;;;;;0.70;0.63;;;14.40;99.90;;;;;;5052858;28;20428;-70
2022/07/26 03:01:53;;;;;;;0.68;0.55;;;14.40;99.90;;;;;;4495036;28;16021445;-71
2022/07/26 03:04:22;;;;;;;2.90;0.60;;;14.40;99.90;;;;;;5033659;28;20073;-69
2022/07/26 03:06:50;;;;;;;2.13;0.90;;;14.30;99.90;;;;;;5055208;28;20036;-72
2022/07/26 03:09:18;;;;;;;1.27;0.70;;;14.30;99.90;;;;;;5055064;28;20435;-70
2022/07/26 03:11:45;;;;;;;2.50;0.80;;;14.30;99.90;;;;;;5054935;28;20500;-69
2022/07/26 03:14:13;;;;;;;2.00;0.98;;;14.30;99.90;;;;;;5054747;28;20462;-70
2022/07/26 03:16:41;;;;;;;2.20;0.80;;;14.30;99.90;;;;;;5053712;28;20474;-71
2022/07/26 03:19:08;;;;;;;0.82;0.47;;;14.40;99.90;;;;;;5055000;28;20547;-72
2022/07/26 03:21:36;;;;;;;0.90;0.40;;;14.40;99.90;;;;;;5054874;28;20417;-71
2022/07/26 03:24:04;;;;;;;0.75;0.40;;;14.50;99.90;;;;;;5053423;28;20492;-72
2022/07/26 03:26:32;;;;;;;0.40;0.40;;;14.50;99.90;;;;;;5054756;28;20036;-72
2022/07/26 03:28:59;;;;;;;1.30;0.57;;;14.50;99.90;;;;;;5054621;28;20021;-71
2022/07/26 03:31:27;;;;;;;1.40;0.40;;;14.50;99.90;;;;;;5053850;28;20389;-71
2022/07/26 03:33:55;;;;;;;0.30;0.30;;;14.50;99.90;;;;;;5053334;28;20044;-72
2022/07/26 03:36:22;;;;;;;0.40;0.38;;;14.60;99.90;;;;;;5054687;28;20064;-74
2022/07/26 03:38:50;;;;;;;3.80;0.93;;;14.60;99.90;;;;;;5054527;28;20025;-71
2022/07/26 03:41:18;;;;;;;0.30;0.30;;;14.60;99.90;;;;;;5054444;28;20025;-71
2022/07/26 03:43:46;;;;;;;2.22;0.30;;;14.60;99.90;;;;;;5054457;28;20359;-73
2022/07/26 03:46:13;;;;;;;1.10;0.35;;;14.60;99.90;;;;;;5054405;28;20056;-71
2022/07/26 03:48:41;;;;;;;0.98;0.57;;;14.60;99.90;;;;;;5054393;28;20025;-71
2022/07/26 03:51:09;;;;;;;3.70;0.47;;;14.60;99.90;;;;;;5054034;28;20501;-71
2022/07/26 03:53:36;;;;;;;0.85;0.52;;;14.60;99.90;;;;;;5054248;28;20047;-72
2022/07/26 03:58:50;;;;;;;1.30;0.43;;;14.50;99.90;;;;;;5054231;28;20053;-72
2022/07/26 04:01:17;;;;;;;0.65;0.40;;;14.30;99.90;;;;;;5054238;28;20382;-72
2022/07/26 04:03:45;;;;;;;0.70;0.50;;;14.30;99.90;;;;;;5053896;28;20492;-72
2022/07/26 04:06:13;;;;;;;0.57;0.30;;;14.30;99.90;;;;;;5054045;28;20024;-72
2022/07/26 04:08:41;;;;;;;0.30;0.30;;;14.30;99.90;;;;;;5054088;28;20048;-73
2022/07/26 04:11:09;;;;;;;2.22;0.30;;;14.20;99.90;;;;;;5054005;28;20537;-70
2022/07/26 04:13:36;;;;;;;1.42;0.43;;;14.10;99.90;;;;;;5053940;28;20082;-71
2022/07/26 04:16:10;;;;;;;0.82;0.40;;;14.00;99.90;;;;;;5053806;28;20024;-71
2022/07/26 04:18:38;;;;;;;0.60;0.50;;;13.90;99.90;;;;;;5053811;28;20045;-70
2022/07/26 04:21:06;;;;;;;1.40;0.52;;;13.80;99.90;;;;;;5053683;28;20029;-70
2022/07/26 04:23:34;;;;;;;1.20;0.40;;;13.80;99.90;;;;;;5053640;28;20100;-72
2022/07/26 04:26:02;;;;;;;1.73;1.30;;;13.80;99.90;;;;;;5052673;28;20028;-71
2022/07/26 04:28:29;;;;;;;1.20;0.50;;;13.80;99.90;;;;;;5053632;28;20028;-72
2022/07/26 04:31:01;;;;;;;0.30;0.30;;;13.80;99.90;;;;;;5053574;28;20478;-71
2022/07/26 04:33:31;;;;;;;0.25;0.22;;;13.80;99.90;;;;;;5053566;28;20029;-72
2022/07/26 04:36:00;;;;;;;0.70;0.52;;;13.80;99.90;;;;;;5053657;28;20071;-71
2022/07/26 04:38:28;;;;;;;0.73;0.52;;;13.80;99.90;;;;;;5053711;28;20021;-72
2022/07/26 04:40:56;;;;;;;0.93;0.30;;;13.80;99.90;;;;;;5053257;28;20025;-71
2022/07/26 04:43:24;;;;;;;0.30;0.30;;;13.80;99.90;;;;;;5053502;28;20017;-71
2022/07/26 04:45:52;;;;;;;0.20;0.20;;;13.70;99.90;;;;;;5053476;28;20111;-71
2022/07/26 04:48:20;;;;;;;1.58;0.40;;;13.70;99.90;;;;;;5053485;28;20322;-71
2022/07/26 04:50:48;;;;;;;0.38;0.30;;;13.70;99.90;;;;;;5053195;28;20478;-71
2022/07/26 04:53:15;;;;;;;0.50;0.30;;;13.60;99.90;;;;;;5053395;28;20065;-71
2022/07/26 04:55:46;;;;;;;0.98;0.30;;;13.50;99.90;;;;;;5053216;28;20025;-71
2022/07/26 04:58:17;;;;;;;0.20;0.20;;;13.50;99.90;;;;;;5053256;28;20035;-71
2022/07/26 05:00:45;;;;;;;0.40;0.20;;;13.50;99.90;;;;;;5053377;28;20017;-71
2022/07/26 05:03:12;;;;;;;0.80;0.30;;;13.40;99.90;;;;;;5053042;28;20044;-72
2022/07/26 05:05:40;;;;;;;0.95;0.60;;;13.40;99.90;;;;;;5053221;28;20083;-72
2022/07/26 05:08:08;;;;;;;1.48;1.08;;;13.30;99.90;;;;;;5053135;28;20060;-73
2022/07/26 05:10:37;;;;;;;1.05;0.20;;;13.20;99.90;;;;;;5053091;28;20053;-71
2022/07/26 05:13:06;;;;;;;0.22;0.20;;;13.20;99.90;;;;;;5052001;28;20029;-71
2022/07/26 05:15:35;;;;;;;0.40;0.32;;;13.10;99.90;;;;;;5053085;28;20415;-72
2022/07/26 05:18:06;;;;;;;0.20;0.20;;;13.10;99.90;;;;;;5051903;28;20025;-71
2022/07/26 05:20:35;;;;;;;1.45;0.40;;;13.00;99.90;;;;;;5053117;28;20035;-71
2022/07/26 05:23:03;;;;;;;0.32;0.30;;;13.00;99.90;;;;;;5053115;28;20347;-71
2022/07/26 05:25:31;;;;;;;1.95;0.65;;;12.90;99.90;;;;;;5053409;28;20519;-71
2022/07/26 05:27:58;;;;;;;0.35;0.28;;;12.90;99.90;;;;;;5052902;28;20384;-72
2022/07/26 05:30:26;;;;;;;1.88;0.38;;;12.90;99.90;;;;;;5052814;28;20028;-71
2022/07/26 05:32:57;;;;;;;0.32;0.20;;;12.80;99.90;;;;;;5053112;28;20055;-70
2022/07/26 05:35:25;;;;;;;1.75;0.20;;;12.70;99.90;;;;;;5052744;28;20070;-70
2022/07/26 05:37:52;;;;;;;0.43;0.30;;;12.60;99.90;;;;;;5052844;28;20143;-70
2022/07/26 05:40:20;;;;;;;0.73;0.70;;;12.60;99.90;;;;;;5052816;28;20063;-71
2022/07/26 05:42:48;;;;;;;0.35;0.25;;;12.40;99.90;;;;;;5053017;28;20377;-72
2022/07/26 05:45:19;;;;;;;0.63;0.40;;;12.40;99.90;;;;;;5052942;28;20109;-70
2022/07/26 05:47:50;;;;;;;0.60;0.30;;;12.30;99.90;;;;;;5052813;28;20021;-71
2022/07/26 05:50:18;;;;;;;0.43;0.28;;;12.30;99.90;;;;;;5052839;28;20020;-72
2022/07/26 05:52:46;;;;;;;0.20;0.20;;;12.20;99.90;;;;;;5052722;28;20029;-71
2022/07/26 05:55:14;;;;;;;1.27;0.65;;;12.20;99.90;;;;;;5054755;28;20021;-71
2022/07/26 05:57:46;;;;;;;0.32;0.30;;;12.30;99.90;;;;;;5056618;28;20473;-71
2022/07/26 06:00:14;;;;;;;0.75;0.40;;;12.30;99.90;;;;;;5056386;28;20025;-71
2022/07/26 06:02:45;;;;;;;1.95;0.43;;;12.30;99.90;;;;;;5056221;28;20048;-72
2022/07/26 06:05:14;;;;;;;0.30;0.30;;;12.30;99.90;;;;;;5056455;28;20459;-71
2022/07/26 06:07:42;;;;;;;0.30;0.30;;;12.30;99.90;;;;;;5056269;28;20071;-72
2022/07/26 06:10:10;;;;;;;1.17;0.50;;;12.30;99.90;;;;;;5056334;28;20021;-73
2022/07/26 06:12:38;;;;;;;1.70;0.35;;;12.20;99.90;;;;;;5056032;28;20041;-72
2022/07/26 06:15:06;;;;;;;0.30;0.28;;;12.10;99.90;;;;;;5056013;28;20045;-72
2022/07/26 06:17:34;;;;;;;1.13;0.30;;;12.10;99.90;;;;;;5056044;28;20385;-72
2022/07/26 06:20:01;;;;;;;0.70;0.40;;;12.00;99.90;;;;;;5055944;28;20021;-72
2022/07/26 06:22:32;;;;;;;0.93;0.50;;;11.90;99.90;;;;;;5056142;28;20100;-73
2022/07/26 06:25:00;;;;;;;1.05;0.28;;;11.80;99.90;;;;;;5056115;28;20021;-72
2022/07/26 06:27:27;;;;;;;0.38;0.30;;;11.70;99.90;;;;;;5055901;28;20020;-73
2022/07/26 06:29:55;;;;;;;0.30;0.30;;;11.60;99.90;;;;;;5055816;28;20389;-72
2022/07/26 06:32:25;;;;;;;0.38;0.30;;;11.60;99.90;;;;;;5055787;28;20036;-71
2022/07/26 06:34:53;;;;;;;1.45;0.40;;;11.60;99.90;;;;;;5055897;28;20029;-73
2022/07/26 06:37:21;;;;;;;0.77;0.50;;;11.50;99.90;;;;;;5055840;28;20021;-71
2022/07/26 06:39:49;;;;;;;1.40;0.52;;;11.40;99.90;;;;;;5055597;28;20071;-71
2022/07/26 06:42:16;;;;;;;0.40;0.30;;;11.40;99.90;;;;;;5054273;28;20049;-72
2022/07/26 06:44:44;;;;;;;1.42;0.47;;;11.30;99.90;;;;;;5055496;28;20501;-71
2022/07/26 06:47:12;;;;;;;0.50;0.40;;;11.30;99.90;;;;;;5055420;28;20025;-72
2022/07/26 06:49:40;;;;;;;0.55;0.55;;;11.20;99.90;;;;;;5055583;28;20378;-70
2022/07/26 06:52:07;;;;;;;1.38;0.40;;;11.30;99.90;;;;;;5055488;28;20112;-70
2022/07/26 06:54:35;;;;;;;0.50;0.30;;;11.20;99.90;;;;;;5055282;28;20032;-70
2022/07/26 06:57:03;;;;;;;0.28;0.28;;;11.20;99.90;;;;;;5055375;28;20029;-71
2022/07/26 06:59:31;;;;;;;0.95;0.40;;;11.10;99.90;;;;;;5055269;28;20079;-71
2022/07/26 07:02:00;;;;;;;0.80;0.35;;;11.00;99.90;;;;;;5055164;28;20041;-70
2022/07/26 07:04:32;;;;;;;2.50;0.70;;;11.00;99.90;;;;;;5055432;28;20017;-70
2022/07/26 07:07:07;;;;;;;4.05;0.60;;;10.90;99.90;;;;;;5053865;28;20420;-71
2022/07/26 07:09:36;;;;;;;1.02;0.70;;;10.80;99.90;;;;;;5055152;28;20067;-72
2022/07/26 07:12:05;;;;;;;0.45;0.38;;;10.80;99.90;;;;;;5054975;28;20072;-71
2022/07/26 07:14:33;;;;;;;4.90;0.60;;;10.70;99.90;;;;;;5054813;28;20041;-73
2022/07/26 07:17:05;;;;;;;0.40;0.40;;;10.60;99.90;;;;;;5055031;28;20447;-71
2022/07/26 07:19:35;;;;;;;1.00;0.40;;;10.60;99.90;;;;;;5054942;28;20108;-71
2022/07/26 07:22:04;;;;;;;0.68;0.47;;;10.50;99.90;;;;;;5054945;28;20032;-71
2022/07/26 07:24:32;;;;;;;0.73;0.45;;;10.40;99.90;;;;;;5054952;28;20013;-71
2022/07/26 07:27:00;;;;;;;2.80;0.57;;;10.30;99.90;;;;;;5054895;28;20059;-72
2022/07/26 07:29:27;;;;;;;1.75;0.70;;;10.30;99.90;;;;;;5054631;28;20025;-72
2022/07/26 07:31:55;;;;;;;0.65;0.47;;;10.20;99.90;;;;;;5054824;28;20032;-71
2022/07/26 07:34:23;;;;;;;1.60;0.60;;;10.20;99.90;;;;;;5054581;28;20017;-73
2022/07/26 07:36:54;;;;;;;1.83;0.40;;;10.10;99.90;;;;;;5054526;28;20029;-72
2022/07/26 07:39:22;;;;;;;2.88;0.40;;;10.10;99.90;;;;;;5054509;28;20017;-73
2022/07/26 07:41:50;;;;;;;1.48;0.40;;;10.00;99.90;;;;;;5054462;28;20032;-72
2022/07/26 07:44:17;;;;;;;0.35;0.35;;;10.00;99.90;;;;;;5054592;28;20021;-72
2022/07/26 07:46:45;;;;;;;2.80;0.70;;;10.00;99.90;;;;;;5054623;28;20347;-72
2022/07/26 07:49:14;;;;;;;1.40;0.60;;;10.00;99.90;;;;;;5054324;28;20100;-71
2022/07/26 07:51:42;;;;;;;1.20;0.65;;;10.00;99.90;;;;;;5054295;28;20474;-73
2022/07/26 07:54:14;;;;;;;0.95;0.68;;;10.00;99.90;;;;;;5054210;28;20032;-73
2022/07/26 07:56:45;;;;;;;1.23;1.10;;;9.90;99.90;;;;;;5054368;28;20029;-72
2022/07/26 07:59:13;;;;;;;1.02;0.60;;;9.90;99.90;;;;;;5054127;28;20374;-73
2022/07/26 08:01:40;;;;;;;1.80;0.95;;;9.90;99.90;;;;;;5054060;28;20025;-72
2022/07/26 08:04:09;;;;;;;1.73;1.55;;;9.80;99.90;;;;;;5054068;28;20521;-73
2022/07/26 08:06:39;;;;;;;3.67;1.80;;;9.80;99.90;;;;;;5054140;28;20075;-71
2022/07/26 08:09:07;;;;;;;1.73;1.10;;;9.80;99.90;;;;;;5053866;28;20029;-73
2022/07/26 08:11:38;;;;;;;2.25;1.17;;;9.80;99.90;;;;;;5053789;28;20394;-73
2022/07/26 08:14:06;;;;;;;2.22;1.52;;;9.80;99.90;;;;;;5053811;28;20021;-73
2022/07/26 08:16:33;;;;;;;1.95;0.77;;;9.80;99.90;;;;;;5053907;28;20117;-72
2022/07/26 08:19:01;;;;;;;2.78;0.70;;;9.70;99.90;;;;;;5053551;28;20017;-71
2022/07/26 08:21:29;;;;;;;1.35;0.65;;;9.70;99.90;;;;;;5052807;28;20055;-71
2022/07/26 08:23:57;;;;;;;1.08;0.82;;;9.60;99.90;;;;;;5053803;28;20028;-71
2022/07/26 08:26:25;;;;;;;1.00;0.80;;;9.60;99.90;;;;;;5053773;28;20028;-72
2022/07/26 08:28:53;;;;;;;1.55;0.70;;;9.60;99.90;;;;;;5053689;28;20028;-71
2022/07/26 08:31:20;;;;;;;1.63;1.17;;;9.50;99.90;;;;;;5053689;28;20029;-71
2022/07/26 08:33:49;;;;;;;1.55;0.40;;;9.50;99.90;;;;;;5053412;28;20113;-72
2022/07/26 08:36:17;;;;;;;1.88;0.60;;;9.50;99.90;;;;;;5053369;28;20044;-73
2022/07/26 08:38:45;;;;;;;1.85;0.70;;;9.50;99.90;;;;;;5053454;28;20025;-73
2022/07/26 08:41:13;;;;;;;1.90;0.70;;;9.40;99.90;;;;;;5053596;28;20114;-70
2022/07/26 08:43:40;;;;;;;0.50;0.40;;;9.40;99.90;;;;;;5053451;28;20473;-71
2022/07/26 08:46:08;;;;;;;1.30;0.65;;;9.40;99.90;;;;;;5053542;28;20473;-70
2022/07/26 08:48:36;;;;;;;1.17;0.60;;;9.40;99.90;;;;;;5053496;28;20040;-70
2022/07/26 08:51:08;;;;;;;0.95;0.50;;;9.40;99.90;;;;;;5053551;28;20486;-72
2022/07/26 08:53:38;;;;;;;2.83;1.60;;;9.40;99.90;;;;;;5053251;28;20025;-71
2022/07/26 08:56:06;;;;;;;9.85;6.68;;;9.40;99.90;;;;;;5053341;28;20079;-71
2022/07/26 08:58:35;;;;;;;3.65;1.13;;;9.40;99.90;;;;;;5053383;28;20029;-72
2022/07/26 09:01:11;;;;;;;1.73;0.70;;;9.40;99.90;;;;;;5053210;28;20025;-72
2022/07/26 09:03:39;;;;;;;4.10;0.95;;;9.40;99.90;;;;;;5053196;28;20059;-71
2022/07/26 09:06:21;;;;;;;5.15;0.95;;;9.40;99.90;;;;;;5053237;28;20104;-72
2022/07/26 09:08:51;;;;;;;3.65;1.20;;;9.40;99.90;;;;;;5053097;28;20029;-73
2022/07/26 09:11:31;;;;;;;2.30;1.20;;;9.40;99.90;;;;;;5053389;28;20087;-75
2022/07/26 09:14:02;;;;;;;1.23;0.73;;;9.40;99.90;;;;;;5051814;28;20037;-73
2022/07/26 09:16:30;;;;;;;1.02;0.60;;;9.30;99.90;;;;;;5053150;28;20098;-74
2022/07/26 09:19:31;;;;;;;1.15;0.70;;;9.30;99.90;;;;;;5053158;28;20032;-72
2022/07/26 09:22:15;;;;;;;1.35;0.70;;;9.30;99.90;;;;;;5009854;28;20091;-72
2022/07/26 09:24:46;;;;;;;1.48;1.00;;;9.30;99.90;;;;;;5051840;28;20029;-71
2022/07/26 09:27:16;;;;;;;1.92;0.65;;;9.30;99.90;;;;;;5053104;28;20108;-73
2022/07/26 09:29:52;;;;;;;1.33;0.70;;;9.30;99.90;;;;;;5054021;28;20035;-73
2022/07/26 09:32:22;;;;;;;0.80;0.80;;;9.30;99.90;;;;;;5057029;28;20123;-72
2022/07/26 09:35:16;;;;;;;1.30;0.57;;;9.30;99.90;;;;;;5056785;28;20023;-72
2022/07/26 09:37:45;;;;;;;0.80;0.60;;;9.40;99.90;;;;;;5057132;28;20024;-71
2022/07/26 09:40:16;;;;;;;1.42;0.65;;;9.40;99.90;;;;;;5056900;28;20032;-73
2022/07/26 09:43:00;;;;;;;2.25;0.88;;;9.30;99.90;;;;;;5056904;28;20068;-72
2022/07/26 09:45:29;;;;;;;1.40;0.70;;;9.40;99.90;;;;;;5056657;28;20492;-72
2022/07/26 09:47:57;;;;;;;1.52;0.85;;;9.40;99.90;;;;;;5056734;28;20103;-72
2022/07/26 09:50:33;;;;;;;3.03;1.02;;;9.40;99.90;;;;;;5056483;28;20104;-73
2022/07/26 09:53:01;;;;;;;;;;;9.40;99.90;;;;;;5057180;28;20029;-73
2022/07/26 09:55:33;;;;;;;5.60;1.00;;;9.40;99.90;;;;;;5054948;28;20366;-72
2022/07/26 09:58:05;;;;;;;2.42;0.90;;;9.40;99.90;;;;;;5056599;28;20366;-72
2022/07/26 10:00:33;;;;;;;2.75;1.45;;;9.40;99.90;;;;;;5056285;28;20036;-73
2022/07/26 10:03:01;;;;;;;4.20;1.10;;;9.40;99.90;;;;;;5056173;28;20044;-72
2022/07/26 10:05:29;;;;;;;0.90;0.63;;;9.40;99.90;;;;;;5056537;28;20056;-72
2022/07/26 10:07:58;;;;;;;1.88;0.75;;;9.40;99.90;;;;;;5056306;28;20032;-73
2022/07/26 10:10:30;;;;;;;1.65;0.77;;;9.40;99.90;;;;;;5056142;28;20466;-72
2022/07/26 10:13:01;;;;;;;2.03;0.70;;;9.40;99.90;;;;;;5056339;28;20375;-72
2022/07/26 10:15:47;;;;;;;2.20;0.82;;;9.30;99.90;;;;;;5056090;28;20048;-72
2022/07/26 10:18:35;;;;;;;1.30;0.70;;;9.40;99.90;;;;;;5056200;28;20060;-73
2022/07/26 10:21:21;;;;;;;1.38;0.90;;;9.40;99.90;;;;;;5054682;28;20213;-72
2022/07/26 10:23:56;;;;;;;2.35;1.00;;;9.40;99.90;;;;;;5056229;28;20021;-72
2022/07/26 10:26:36;;;;;;;2.47;0.90;;;9.40;99.90;;;;;;5055876;28;20392;-73
2022/07/26 10:29:22;;;;;;;2.83;1.00;;;9.30;99.90;;;;;;5056146;28;20481;-72
2022/07/26 10:32:14;;;;;;;1.15;0.60;;;9.30;99.90;;;;;;5055816;28;20082;-72
2022/07/26 10:34:42;;;;;;;1.65;1.00;;;9.30;99.90;;;;;;5055753;28;20020;-74
2022/07/26 10:37:23;;;;;;;2.97;0.88;;;9.30;99.90;;;;;;5055955;28;20028;-72
2022/07/26 10:40:14;;;;;;;1.20;0.70;;;9.30;99.90;;;;;;5055482;28;20017;-73
2022/07/26 10:42:45;;;;;;;1.85;0.70;;;9.30;99.90;;;;;;5055523;28;20025;-72
2022/07/26 10:45:21;;;;;;;1.27;0.70;;;9.20;99.90;;;;;;5055562;28;20478;-73
2022/07/26 10:48:06;;;;;;;;;;;9.20;99.90;;;;;;5055968;28;20032;-73
2022/07/26 10:50:34;;;;;;;1.02;0.63;;;9.20;99.90;;;;;;5055254;28;20281;-72
2022/07/26 10:53:03;;;;;;;1.83;0.70;;;9.20;99.90;;;;;;5055318;28;20073;-72
2022/07/26 10:55:43;;;;;;;1.95;1.00;;;9.20;99.90;;;;;;5055446;28;20017;-72
2022/07/26 10:58:11;;;;;;;2.15;0.80;;;9.20;99.90;;;;;;5055321;28;20024;-73
2022/07/26 11:00:39;;;;;;;0.98;0.50;;;9.20;99.90;;;;;;5055350;28;20025;-72
2022/07/26 11:03:07;;;;;;;1.92;1.02;;;9.20;99.90;;;;;;5055202;28;20419;-71
2022/07/26 11:05:34;;;;;;;1.63;0.70;;;9.20;99.90;;;;;;5055282;28;20021;-72
2022/07/26 11:08:09;;;;;;;0.90;0.70;;;9.20;99.90;;;;;;5055069;28;20032;-72
2022/07/26 11:13:48;;;;;;;1.83;0.60;;;9.20;99.90;;;;;;5055391;28;20072;-72
2022/07/26 11:16:16;;;;;;;2.10;0.60;;;9.30;99.90;;;;;;5055136;28;20021;-73
2022/07/26 11:18:44;;;;;;;1.25;0.60;;;9.20;99.90;;;;;;5055033;28;20025;-71
2022/07/26 11:21:17;;;;;;;2.05;0.88;;;9.20;99.90;;;;;;5054911;28;20103;-72
2022/07/26 11:23:47;;;;;;;1.10;0.70;;;9.20;99.90;;;;;;5055422;28;20466;-71
2022/07/26 11:26:22;;;;;;;1.00;0.75;;;9.20;99.90;;;;;;5054651;28;20053;-72
2022/07/26 11:29:00;;;;;;;2.08;1.00;;;9.20;99.90;;;;;;5054833;28;20501;-73
2022/07/26 11:31:38;;;;;;;2.05;0.90;;;9.10;99.90;;;;;;5054581;28;20036;-73
2022/07/26 11:34:08;;;;;;;0.95;0.57;;;9.10;99.90;;;;;;5054464;28;20017;-73
2022/07/26 11:36:43;;;;;;;1.58;1.02;;;9.10;99.90;;;;;;5054656;28;20017;-72
2022/07/26 11:39:13;;;;;;;1.60;1.00;;;9.10;99.90;;;;;;5054592;28;20489;-73
2022/07/26 11:41:42;;;;;;;1.48;0.90;;;9.00;99.90;;;;;;5054541;28;20522;-73
2022/07/26 11:44:21;;;;;;;1.52;0.75;;;9.00;99.90;;;;;;5054388;28;20052;-73
2022/07/26 11:46:49;;;;;;;1.27;0.80;;;8.90;99.90;;;;;;5054549;28;20021;-72
2022/07/26 11:49:18;;;;;;;1.35;0.70;;;8.90;99.90;;;;;;5054251;28;20393;-72
2022/07/26 11:52:00;;;;;;;2.28;0.95;;;8.90;99.90;;;;;;5053928;28;20091;-73
2022/07/26 11:54:52;;;;;;;1.90;0.82;;;8.90;99.90;;;;;;5054207;28;20024;-73
2022/07/26 11:57:21;;;;;;;1.00;0.70;;;8.90;99.90;;;;;;5054054;28;20025;-73
2022/07/26 11:59:50;;;;;;;0.75;0.50;;;8.90;99.90;;;;;;5054195;28;20100;-74
2022/07/26 12:02:19;;;;;;;2.05;1.15;;;8.90;99.90;;;;;;5052800;28;20410;-71
2022/07/26 12:04:47;;;;;;;1.15;0.50;;;8.80;99.90;;;;;;5054274;28;20028;-72
2022/07/26 12:07:20;;;;;;;2.08;0.68;;;8.90;99.90;;;;;;5054026;28;20100;-73
2022/07/26 12:09:53;;;;;;;0.70;0.52;;;8.80;99.90;;;;;;5053991;28;20024;-70
2022/07/26 12:12:27;;;;;;;1.35;0.85;;;8.80;99.90;;;;;;5053908;28;20040;-71
2022/07/26 12:15:00;;;;;;;2.75;0.75;;;8.80;99.90;;;;;;5053920;28;20025;-70
2022/07/26 12:17:29;;;;;;;1.17;0.55;;;8.80;99.90;;;;;;5053904;28;20025;-69
2022/07/26 12:20:09;;;;;;;1.83;0.90;;;8.80;99.90;;;;;;5053738;28;20027;-71
2022/07/26 12:22:37;;;;;;;1.08;0.80;;;8.80;99.90;;;;;;5053876;28;20029;-71
2022/07/26 12:25:05;;;;;;;0.80;0.50;;;8.80;99.90;;;;;;5053843;28;20025;-71
2022/07/26 12:27:44;;;;;;;1.88;0.80;;;8.80;99.90;;;;;;5053796;28;20058;-71
2022/07/26 12:30:12;;;;;;;2.30;0.70;;;8.80;99.90;;;;;;5053729;28;20420;-71
2022/07/26 12:32:42;;;;;;;1.20;0.60;;;8.80;99.90;;;;;;5053526;28;20490;-71
2022/07/26 12:35:12;;;;;;;1.15;0.50;;;8.80;99.90;;;;;;5053502;28;20025;-71
2022/07/26 12:37:46;;;;;;;2.90;1.48;;;8.80;99.90;;;;;;5053748;28;20067;-71
2022/07/26 12:40:20;;;;;;;2.22;0.90;;;8.80;99.90;;;;;;5052095;28;20447;-71
2022/07/26 12:42:51;;;;;;;3.08;1.25;;;8.70;99.90;;;;;;5053760;28;20032;-70
2022/07/26 12:45:24;;;;;;;1.92;1.00;;;8.70;99.90;;;;;;5054113;28;20027;-70
2022/07/26 12:47:54;;;;;;;1.58;0.80;;;8.70;99.90;;;;;;5053521;28;20044;-73
2022/07/26 12:50:25;;;;;;;0.90;0.50;;;8.70;99.90;;;;;;5053506;28;20021;-72
2022/07/26 12:53:03;;;;;;;1.27;0.65;;;8.70;99.90;;;;;;5053257;28;20036;-72
2022/07/26 12:55:31;;;;;;;1.92;0.80;;;8.70;99.90;;;;;;5053397;28;20025;-72
2022/07/26 12:57:59;;;;;;;1.85;0.47;;;8.70;99.90;;;;;;5053392;28;20018;-73
2022/07/26 13:00:28;;;;;;;0.90;0.70;;;8.70;99.90;;;;;;5053509;28;20032;-70
2022/07/26 13:02:55;;;;;;;1.13;0.80;;;8.70;99.90;;;;;;5053301;28;20124;-71
2022/07/26 13:05:24;;;;;;;1.33;0.52;;;8.70;99.90;;;;;;5057339;28;20159;-72
2022/07/26 13:07:53;;;;;;;2.17;0.80;;;8.60;99.90;;;;;;5057417;28;20017;-71
2022/07/26 13:10:20;;;;;;;1.13;0.60;;;8.60;99.90;;;;;;5057343;28;20040;-71